Terminal Aerodrome Forecast
Issued by NWS

Home | Current Version | Previous Version | Graphics & Text | Print | Product List | Glossary On
Versions: 1 2 3 4 5 6 7 8 9 10 11 12 13 14 15 16 17 18 19 20 21 22
000
FTUS43 KLSX 011621 AAC
TAFSUS
TAF AMD
KSUS 011621Z 0116/0212 23008KT P6SM SCT015 SCT050 BKN100
     FM012100 18008KT P6SM VCSH BKN060
      TEMPO 0122/0201 5SM -TSRA OVC045CB
     FM020100 17009KT 4SM SHRA VCTS OVC025CB
     FM020900 12005KT 4SM BR OVC010=

USA.gov is the U.S. government's official web portal to all federal, state and local government web resources and services.